Wolke Sonne

Wetter Roßtal

Gehe zu: Ammerndorf | Roßtal 2

Tageswerte vom Sonntag, 16.12.2018

Optionen

Tag:
Erweitert:

Alle Werte vom Sonntag, 16.12.2018

Einen Moment bitte, die Daten werden aufbereitet...

UhrzeitTemperaturFeuchteLuftdruckNiederschlagEvapotranspirationNiederschlag?WindWindböenRegenrateWindrichtungHelligkeitSolarstrahlungUV-IndexSonne?Feinstaub 10µmUhrzeit
Diagramm IconDiagramm IconDiagramm IconDiagramm IconDiagramm IconDiagramm IconDiagramm IconDiagramm IconDiagramm IconDiagramm IconDiagramm IconDiagramm IconDiagramm IconDiagramm IconDiagramm Icon
00:00-2,2 °C 76 % 1022,3 hPa 0,0 mm 0,0 mm nein 9,7 km/h 20,9 km/h 0,0 mm/h OSO 0,000 klux 0,0 W/qm 0,0 nein 29,05 µg/m³ 00:00
00:05-2,2 °C 76 % 1022,3 hPa 0,0 mm 0,0 mm nein 8,0 km/h 17,7 km/h 0,0 mm/h OSO 0,000 klux 0,0 W/qm 0,0 nein 21,27 µg/m³ 00:05
00:10-2,2 °C 76 % 1022,2 hPa 0,0 mm 0,0 mm nein 6,4 km/h 11,3 km/h 0,0 mm/h OSO 0,000 klux 0,0 W/qm 0,0 nein 21,20 µg/m³ 00:10
00:15-2,2 °C 76 % 1022,1 hPa 0,0 mm 0,0 mm nein 6,4 km/h 14,5 km/h 0,0 mm/h OSO 0,000 klux 0,0 W/qm 0,0 nein 23,10 µg/m³ 00:15
00:20-2,2 °C 76 % 1022,1 hPa 0,0 mm 0,0 mm nein 6,4 km/h 14,5 km/h 0,0 mm/h SO 0,000 klux 0,0 W/qm 0,0 nein 22,70 µg/m³ 00:20
00:25-2,2 °C 76 % 1022,0 hPa 0,0 mm 0,0 mm nein 3,2 km/h 9,7 km/h 0,0 mm/h SO 0,000 klux 0,0 W/qm 0,0 nein 20,55 µg/m³ 00:25
00:30-2,2 °C 76 % 1021,9 hPa 0,0 mm 0,0 mm nein 6,4 km/h 17,7 km/h 0,0 mm/h SSO 0,000 klux 0,0 W/qm 0,0 nein 19,90 µg/m³ 00:30
00:35-2,8 °C 76 % 1022,0 hPa 0,0 mm 0,0 mm nein 4,8 km/h 16,1 km/h 0,0 mm/h SO 0,000 klux 0,0 W/qm 0,0 nein 22,77 µg/m³ 00:35
00:40-2,8 °C 76 % 1021,9 hPa 0,0 mm 0,0 mm nein 8,0 km/h 16,1 km/h 0,0 mm/h OSO 0,000 klux 0,0 W/qm 0,0 nein 20,10 µg/m³ 00:40
00:45-2,8 °C 75 % 1021,8 hPa 0,0 mm 0,0 mm nein 11,3 km/h 20,9 km/h 0,0 mm/h SSO 0,000 klux 0,0 W/qm 0,0 nein 20,60 µg/m³ 00:45
00:50-2,8 °C 76 % 1021,7 hPa 0,0 mm 0,0 mm nein 8,0 km/h 14,5 km/h 0,0 mm/h OSO 0,000 klux 0,0 W/qm 0,0 nein 21,12 µg/m³ 00:50
00:55-2,8 °C 76 % 1021,4 hPa 0,0 mm 0,0 mm nein 6,4 km/h 12,9 km/h 0,0 mm/h SO 0,000 klux 0,0 W/qm 0,0 nein 20,85 µg/m³ 00:55
01:00-2,8 °C 76 % 1021,3 hPa 0,0 mm 0,0 mm nein 6,4 km/h 12,9 km/h 0,0 mm/h SO 0,000 klux 0,0 W/qm 0,0 nein 21,48 µg/m³ 01:00
01:05-2,8 °C 76 % 1021,2 hPa 0,0 mm 0,0 mm nein 9,7 km/h 19,3 km/h 0,0 mm/h SO 0,000 klux 0,0 W/qm 0,0 nein 25,80 µg/m³ 01:05
01:10-2,8 °C 76 % 1021,0 hPa 0,0 mm 0,0 mm nein 6,4 km/h 19,3 km/h 0,0 mm/h OSO 0,000 klux 0,0 W/qm 0,0 nein 20,43 µg/m³ 01:10
01:15-2,8 °C 76 % 1021,0 hPa 0,0 mm 0,0 mm nein 4,8 km/h 16,1 km/h 0,0 mm/h OSO 0,000 klux 0,0 W/qm 0,0 nein 23,65 µg/m³ 01:15
01:20-2,8 °C 76 % 1020,9 hPa 0,0 mm 0,0 mm nein 3,2 km/h 8,0 km/h 0,0 mm/h OSO 0,000 klux 0,0 W/qm 0,0 nein 22,07 µg/m³ 01:20
01:25-3,3 °C 76 % 1020,8 hPa 0,0 mm 0,0 mm nein 3,2 km/h 8,0 km/h 0,0 mm/h SO 0,000 klux 0,0 W/qm 0,0 nein 23,73 µg/m³ 01:25
01:30-3,3 °C 76 % 1020,8 hPa 0,0 mm 0,0 mm nein 1,6 km/h 6,4 km/h 0,0 mm/h OSO 0,000 klux 0,0 W/qm 0,0 nein 22,25 µg/m³ 01:30
01:35-3,3 °C 77 % 1020,9 hPa 0,0 mm 0,0 mm nein 4,8 km/h 11,3 km/h 0,0 mm/h SO 0,000 klux 0,0 W/qm 0,0 nein 21,57 µg/m³ 01:35
01:40-3,3 °C 77 % 1021,0 hPa 0,0 mm 0,0 mm nein 6,4 km/h 12,9 km/h 0,0 mm/h SSO 0,000 klux 0,0 W/qm 0,0 nein 19,17 µg/m³ 01:40
01:45-3,3 °C 77 % 1021,1 hPa 0,0 mm 0,0 mm nein 4,8 km/h 12,9 km/h 0,0 mm/h SSO 0,000 klux 0,0 W/qm 0,0 nein 20,45 µg/m³ 01:45
01:50-3,3 °C 77 % 1021,1 hPa 0,0 mm 0,0 mm nein 1,6 km/h 8,0 km/h 0,0 mm/h SO 0,000 klux 0,0 W/qm 0,0 nein 22,42 µg/m³ 01:50
01:55-3,3 °C 77 % 1021,2 hPa 0,0 mm 0,0 mm nein 4,8 km/h 12,9 km/h 0,0 mm/h SO 0,000 klux 0,0 W/qm 0,0 nein 20,90 µg/m³ 01:55
UhrzeitTemperaturFeuchteLuftdruckNiederschlagEvapotranspirationNiederschlag?WindWindböenRegenrateWindrichtungHelligkeitSolarstrahlungUV-IndexSonne?Feinstaub 10µmUhrzeit
02:00-3,9 °C 78 % 1021,2 hPa 0,0 mm 0,0 mm nein 3,2 km/h 4,8 km/h 0,0 mm/h SO 0,000 klux 0,0 W/qm 0,0 nein 19,10 µg/m³ 02:00
02:05-3,9 °C 78 % 1020,9 hPa 0,0 mm 0,0 mm nein 4,8 km/h 14,5 km/h 0,0 mm/h OSO 0,000 klux 0,0 W/qm 0,0 nein 21,52 µg/m³ 02:05
02:10-3,9 °C 78 % 1020,6 hPa 0,0 mm 0,0 mm nein 8,0 km/h 12,9 km/h 0,0 mm/h OSO 0,000 klux 0,0 W/qm 0,0 nein 23,47 µg/m³ 02:10
02:15-3,9 °C 78 % 1020,2 hPa 0,0 mm 0,0 mm nein 9,7 km/h 16,1 km/h 0,0 mm/h OSO 0,000 klux 0,0 W/qm 0,0 nein 23,35 µg/m³ 02:15
02:20-3,9 °C 79 % 1020,0 hPa 0,0 mm 0,0 mm nein 11,3 km/h 17,7 km/h 0,0 mm/h OSO 0,000 klux 0,0 W/qm 0,0 nein 25,23 µg/m³ 02:20
02:25-3,9 °C 79 % 1020,0 hPa 0,0 mm 0,0 mm nein 9,7 km/h 19,3 km/h 0,0 mm/h OSO 0,000 klux 0,0 W/qm 0,0 nein 20,50 µg/m³ 02:25
02:30-3,9 °C 80 % 1019,9 hPa 0,0 mm 0,0 mm nein 9,7 km/h 17,7 km/h 0,0 mm/h OSO 0,000 klux 0,0 W/qm 0,0 nein 22,80 µg/m³ 02:30
02:35-3,9 °C 80 % 1019,7 hPa 0,0 mm 0,0 mm nein 8,0 km/h 17,7 km/h 0,0 mm/h OSO 0,000 klux 0,0 W/qm 0,0 nein 21,93 µg/m³ 02:35
02:40-3,9 °C 80 % 1019,8 hPa 0,0 mm 0,0 mm nein 6,4 km/h 16,1 km/h 0,0 mm/h OSO 0,000 klux 0,0 W/qm 0,0 nein 25,60 µg/m³ 02:40
02:45-3,9 °C 80 % 1019,8 hPa 0,0 mm 0,0 mm nein 4,8 km/h 12,9 km/h 0,0 mm/h SO 0,000 klux 0,0 W/qm 0,0 nein 25,92 µg/m³ 02:45
02:50-3,9 °C 81 % 1019,7 hPa 0,0 mm 0,0 mm nein 3,2 km/h 11,3 km/h 0,0 mm/h OSO 0,000 klux 0,0 W/qm 0,0 nein 26,52 µg/m³ 02:50
02:55-3,9 °C 81 % 1019,7 hPa 0,0 mm 0,0 mm nein 6,4 km/h 12,9 km/h 0,0 mm/h OSO 0,000 klux 0,0 W/qm 0,0 nein 24,63 µg/m³ 02:55
03:00-3,9 °C 81 % 1019,7 hPa 0,0 mm 0,0 mm nein 3,2 km/h 11,3 km/h 0,0 mm/h OSO 0,000 klux 0,0 W/qm 0,0 nein 28,17 µg/m³ 03:00
03:05-3,9 °C 81 % 1019,7 hPa 0,0 mm 0,0 mm nein 4,8 km/h 12,9 km/h 0,0 mm/h OSO 0,000 klux 0,0 W/qm 0,0 nein 25,97 µg/m³ 03:05
03:10-3,9 °C 81 % 1019,6 hPa 0,0 mm 0,0 mm nein 4,8 km/h 12,9 km/h 0,0 mm/h OSO 0,000 klux 0,0 W/qm 0,0 nein 27,62 µg/m³ 03:10
03:15-3,9 °C 81 % 1019,6 hPa 0,0 mm 0,0 mm nein 1,6 km/h 6,4 km/h 0,0 mm/h OSO 0,000 klux 0,0 W/qm 0,0 nein - 03:15
03:20-3,9 °C 81 % 1019,6 hPa 0,0 mm 0,0 mm nein 1,6 km/h 11,3 km/h 0,0 mm/h OSO 0,000 klux 0,0 W/qm 0,0 nein - 03:20
03:25-3,9 °C 81 % 1019,6 hPa 0,0 mm 0,0 mm nein 1,6 km/h 11,3 km/h 0,0 mm/h SO 0,000 klux 0,0 W/qm 0,0 nein - 03:25
03:30-4,4 °C 81 % 1019,8 hPa 0,0 mm 0,0 mm nein 1,6 km/h 8,0 km/h 0,0 mm/h SO 0,000 klux 0,0 W/qm 0,0 nein 24,15 µg/m³ 03:30
03:35-4,4 °C 81 % 1019,8 hPa 0,0 mm 0,0 mm nein 4,8 km/h 11,3 km/h 0,0 mm/h SO 0,000 klux 0,0 W/qm 0,0 nein 29,82 µg/m³ 03:35
03:40-4,4 °C 81 % 1019,7 hPa 0,0 mm 0,0 mm nein 4,8 km/h 12,9 km/h 0,0 mm/h OSO 0,000 klux 0,0 W/qm 0,0 nein 30,82 µg/m³ 03:40
03:45-4,4 °C 81 % 1019,8 hPa 0,0 mm 0,0 mm nein 1,6 km/h 4,8 km/h 0,0 mm/h SO 0,000 klux 0,0 W/qm 0,0 nein 28,50 µg/m³ 03:45
03:50-4,4 °C 81 % 1019,7 hPa 0,0 mm 0,0 mm nein 0,0 km/h 0,0 km/h 0,0 mm/h N 0,000 klux 0,0 W/qm 0,0 nein 28,70 µg/m³ 03:50
03:55-4,4 °C 81 % 1019,6 hPa 0,0 mm 0,0 mm nein 3,2 km/h 8,0 km/h 0,0 mm/h OSO 0,000 klux 0,0 W/qm 0,0 nein 28,65 µg/m³ 03:55
UhrzeitTemperaturFeuchteLuftdruckNiederschlagEvapotranspirationNiederschlag?WindWindböenRegenrateWindrichtungHelligkeitSolarstrahlungUV-IndexSonne?Feinstaub 10µmUhrzeit
04:00-4,4 °C 81 % 1019,5 hPa 0,0 mm 0,0 mm nein 1,6 km/h 8,0 km/h 0,0 mm/h SO 0,000 klux 0,0 W/qm 0,0 nein 24,43 µg/m³ 04:00
04:05-4,4 °C 81 % 1019,4 hPa 0,0 mm 0,0 mm nein 4,8 km/h 12,9 km/h 0,0 mm/h OSO 0,000 klux 0,0 W/qm 0,0 nein 26,82 µg/m³ 04:05
04:10-4,4 °C 82 % 1019,4 hPa 0,0 mm 0,0 mm nein 1,6 km/h 9,7 km/h 0,0 mm/h OSO 0,000 klux 0,0 W/qm 0,0 nein 30,25 µg/m³ 04:10
04:15-4,4 °C 82 % 1019,4 hPa 0,0 mm 0,0 mm nein 3,2 km/h 8,0 km/h 0,0 mm/h OSO 0,000 klux 0,0 W/qm 0,0 nein 28,42 µg/m³ 04:15
04:20-4,4 °C 82 % 1019,3 hPa 0,0 mm 0,0 mm nein 3,2 km/h 8,0 km/h 0,0 mm/h OSO 0,000 klux 0,0 W/qm 0,0 nein 27,25 µg/m³ 04:20
04:25-4,4 °C 82 % 1019,3 hPa 0,0 mm 0,0 mm nein 3,2 km/h 8,0 km/h 0,0 mm/h OSO 0,000 klux 0,0 W/qm 0,0 nein 26,80 µg/m³ 04:25
04:30-4,4 °C 82 % 1019,2 hPa 0,0 mm 0,0 mm nein 4,8 km/h 8,0 km/h 0,0 mm/h OSO 0,000 klux 0,0 W/qm 0,0 nein 26,42 µg/m³ 04:30
04:35-4,4 °C 82 % 1019,2 hPa 0,0 mm 0,0 mm nein 4,8 km/h 8,0 km/h 0,0 mm/h OSO 0,000 klux 0,0 W/qm 0,0 nein 29,95 µg/m³ 04:35
04:40-4,4 °C 83 % 1019,0 hPa 0,0 mm 0,0 mm nein 3,2 km/h 8,0 km/h 0,0 mm/h OSO 0,000 klux 0,0 W/qm 0,0 nein 28,70 µg/m³ 04:40
04:45-4,4 °C 83 % 1018,8 hPa 0,0 mm 0,0 mm nein 6,4 km/h 12,9 km/h 0,0 mm/h OSO 0,000 klux 0,0 W/qm 0,0 nein 29,63 µg/m³ 04:45
04:50-4,4 °C 83 % 1018,6 hPa 0,0 mm 0,0 mm nein 6,4 km/h 9,7 km/h 0,0 mm/h OSO 0,000 klux 0,0 W/qm 0,0 nein 31,50 µg/m³ 04:50
04:55-4,4 °C 83 % 1018,4 hPa 0,0 mm 0,0 mm nein 4,8 km/h 11,3 km/h 0,0 mm/h OSO 0,000 klux 0,0 W/qm 0,0 nein 31,25 µg/m³ 04:55
05:00-4,4 °C 83 % 1018,4 hPa 0,0 mm 0,0 mm nein 3,2 km/h 9,7 km/h 0,0 mm/h O 0,000 klux 0,0 W/qm 0,0 nein 28,50 µg/m³ 05:00
05:05-4,4 °C 83 % 1018,4 hPa 0,0 mm 0,0 mm nein 3,2 km/h 9,7 km/h 0,0 mm/h OSO 0,000 klux 0,0 W/qm 0,0 nein 30,32 µg/m³ 05:05
05:10-4,4 °C 83 % 1018,3 hPa 0,0 mm 0,0 mm nein 4,8 km/h 11,3 km/h 0,0 mm/h OSO 0,000 klux 0,0 W/qm 0,0 nein 31,23 µg/m³ 05:10
05:15-4,4 °C 83 % 1018,2 hPa 0,0 mm 0,0 mm nein 4,8 km/h 11,3 km/h 0,0 mm/h OSO 0,000 klux 0,0 W/qm 0,0 nein 30,95 µg/m³ 05:15
05:20-4,4 °C 83 % 1018,1 hPa 0,0 mm 0,0 mm nein 4,8 km/h 9,7 km/h 0,0 mm/h OSO 0,000 klux 0,0 W/qm 0,0 nein 30,50 µg/m³ 05:20
05:25-4,4 °C 83 % 1018,1 hPa 0,0 mm 0,0 mm nein 4,8 km/h 11,3 km/h 0,0 mm/h OSO 0,000 klux 0,0 W/qm 0,0 nein 33,50 µg/m³ 05:25
05:30-4,4 °C 83 % 1018,1 hPa 0,0 mm 0,0 mm nein 4,8 km/h 6,4 km/h 0,0 mm/h OSO 0,000 klux 0,0 W/qm 0,0 nein 31,42 µg/m³ 05:30
05:35-4,4 °C 83 % 1018,1 hPa 0,0 mm 0,0 mm nein 3,2 km/h 8,0 km/h 0,0 mm/h OSO 0,000 klux 0,0 W/qm 0,0 nein 32,78 µg/m³ 05:35
05:40-4,4 °C 83 % 1017,9 hPa 0,0 mm 0,0 mm nein 3,2 km/h 11,3 km/h 0,0 mm/h OSO 0,000 klux 0,0 W/qm 0,0 nein 30,48 µg/m³ 05:40
05:45-4,4 °C 83 % 1017,8 hPa 0,0 mm 0,0 mm nein 6,4 km/h 12,9 km/h 0,0 mm/h OSO 0,000 klux 0,0 W/qm 0,0 nein 26,62 µg/m³ 05:45
05:50-4,4 °C 83 % 1017,8 hPa 0,0 mm 0,0 mm nein 6,4 km/h 14,5 km/h 0,0 mm/h OSO 0,000 klux 0,0 W/qm 0,0 nein 27,13 µg/m³ 05:50
05:55-4,4 °C 83 % 1017,7 hPa 0,0 mm 0,0 mm nein 8,0 km/h 16,1 km/h 0,0 mm/h OSO 0,000 klux 0,0 W/qm 0,0 nein 27,20 µg/m³ 05:55
UhrzeitTemperaturFeuchteLuftdruckNiederschlagEvapotranspirationNiederschlag?WindWindböenRegenrateWindrichtungHelligkeitSolarstrahlungUV-IndexSonne?Feinstaub 10µmUhrzeit
06:00-4,4 °C 83 % 1017,5 hPa 0,0 mm 0,0 mm nein 8,0 km/h 16,1 km/h 0,0 mm/h OSO 0,000 klux 0,0 W/qm 0,0 nein 27,25 µg/m³ 06:00
06:05-4,4 °C 83 % 1017,4 hPa 0,0 mm 0,0 mm nein 6,4 km/h 11,3 km/h 0,0 mm/h OSO 0,000 klux 0,0 W/qm 0,0 nein 27,37 µg/m³ 06:05
06:10-4,4 °C 83 % 1017,4 hPa 0,0 mm 0,0 mm nein 8,0 km/h 12,9 km/h 0,0 mm/h OSO 0,000 klux 0,0 W/qm 0,0 nein 24,90 µg/m³ 06:10
06:15-4,4 °C 83 % 1017,4 hPa 0,0 mm 0,0 mm nein 8,0 km/h 14,5 km/h 0,0 mm/h OSO 0,000 klux 0,0 W/qm 0,0 nein 24,43 µg/m³ 06:15
06:20-4,4 °C 83 % 1017,2 hPa 0,0 mm 0,0 mm nein 6,4 km/h 16,1 km/h 0,0 mm/h OSO 0,000 klux 0,0 W/qm 0,0 nein 26,02 µg/m³ 06:20
06:25-4,4 °C 83 % 1017,3 hPa 0,0 mm 0,0 mm nein 6,4 km/h 14,5 km/h 0,0 mm/h OSO 0,000 klux 0,0 W/qm 0,0 nein 25,48 µg/m³ 06:25
06:30-4,4 °C 82 % 1017,2 hPa 0,0 mm 0,0 mm nein 6,4 km/h 16,1 km/h 0,0 mm/h OSO 0,000 klux 0,0 W/qm 0,0 nein 22,62 µg/m³ 06:30
06:35-4,4 °C 82 % 1017,3 hPa 0,0 mm 0,0 mm nein 8,0 km/h 17,7 km/h 0,0 mm/h SO 0,000 klux 0,0 W/qm 0,0 nein 23,98 µg/m³ 06:35
06:40-3,9 °C 81 % 1017,1 hPa 0,0 mm 0,0 mm nein 8,0 km/h 19,3 km/h 0,0 mm/h SO 0,000 klux 0,0 W/qm 0,0 nein 21,80 µg/m³ 06:40
06:45-3,9 °C 81 % 1017,0 hPa 0,0 mm 0,0 mm nein 9,7 km/h 19,3 km/h 0,0 mm/h OSO 0,000 klux 0,0 W/qm 0,0 nein 20,60 µg/m³ 06:45
06:50-3,9 °C 81 % 1017,0 hPa 0,0 mm 0,0 mm nein 9,7 km/h 20,9 km/h 0,0 mm/h OSO 0,000 klux 0,0 W/qm 0,0 nein 23,18 µg/m³ 06:50
06:55-3,9 °C 80 % 1016,9 hPa 0,0 mm 0,0 mm nein 8,0 km/h 17,7 km/h 0,0 mm/h OSO 0,000 klux 0,0 W/qm 0,0 nein 23,83 µg/m³ 06:55
07:00-3,9 °C 80 % 1016,9 hPa 0,0 mm 0,0 mm nein 8,0 km/h 17,7 km/h 0,0 mm/h OSO 0,000 klux 0,0 W/qm 0,0 nein 21,27 µg/m³ 07:00
07:05-3,9 °C 80 % 1016,9 hPa 0,0 mm 0,0 mm nein 8,0 km/h 14,5 km/h 0,0 mm/h OSO 0,000 klux 0,0 W/qm 0,0 nein 21,45 µg/m³ 07:05
07:10-3,9 °C 80 % 1016,9 hPa 0,0 mm 0,0 mm nein 9,7 km/h 19,3 km/h 0,0 mm/h OSO 0,000 klux 0,0 W/qm 0,0 nein 21,90 µg/m³ 07:10
07:15-3,9 °C 80 % 1016,9 hPa 0,0 mm 0,0 mm nein 8,0 km/h 19,3 km/h 0,0 mm/h OSO 0,000 klux 0,0 W/qm 0,0 nein 19,95 µg/m³ 07:15
07:20-3,9 °C 80 % 1017,0 hPa 0,0 mm 0,0 mm nein 8,0 km/h 17,7 km/h 0,0 mm/h OSO 0,000 klux 0,0 W/qm 0,0 nein 21,55 µg/m³ 07:20
07:25-3,9 °C 80 % 1017,1 hPa 0,0 mm 0,0 mm nein 8,0 km/h 14,5 km/h 0,0 mm/h OSO 0,000 klux 0,0 W/qm 0,0 nein 22,30 µg/m³ 07:25
07:30-3,9 °C 80 % 1017,4 hPa 0,0 mm 0,0 mm nein 6,4 km/h 14,5 km/h 0,0 mm/h SO 0,000 klux 0,0 W/qm 0,0 nein 20,00 µg/m³ 07:30
07:35-3,9 °C 80 % 1017,3 hPa 0,0 mm 0,0 mm nein 6,4 km/h 12,9 km/h 0,0 mm/h SO 0,000 klux 0,0 W/qm 0,0 nein 19,57 µg/m³ 07:35
07:40-3,9 °C 80 % 1017,1 hPa 0,0 mm 0,0 mm nein 6,4 km/h 12,9 km/h 0,0 mm/h SO 0,000 klux 0,0 W/qm 0,0 nein 22,37 µg/m³ 07:40
07:45-3,3 °C 80 % 1016,7 hPa 0,0 mm 0,0 mm nein 6,4 km/h 16,1 km/h 0,0 mm/h OSO 0,000 klux 0,0 W/qm 0,0 nein 18,48 µg/m³ 07:45
07:50-3,3 °C 79 % 1016,7 hPa 0,0 mm 0,0 mm nein 8,0 km/h 16,1 km/h 0,0 mm/h SO 0,000 klux 0,0 W/qm 0,0 nein 18,87 µg/m³ 07:50
07:55-3,3 °C 79 % 1016,9 hPa 0,0 mm 0,0 mm nein 6,4 km/h 12,9 km/h 0,0 mm/h SO 0,000 klux 0,0 W/qm 0,0 nein 18,55 µg/m³ 07:55
UhrzeitTemperaturFeuchteLuftdruckNiederschlagEvapotranspirationNiederschlag?WindWindböenRegenrateWindrichtungHelligkeitSolarstrahlungUV-IndexSonne?Feinstaub 10µmUhrzeit
08:00-3,3 °C 79 % 1016,7 hPa 0,0 mm 0,0 mm nein 9,7 km/h 20,9 km/h 0,0 mm/h SO 0,000 klux 0,0 W/qm 0,0 nein 21,10 µg/m³ 08:00
08:05-3,3 °C 79 % 1016,7 hPa 0,0 mm 0,0 mm nein 9,7 km/h 17,7 km/h 0,0 mm/h SO 0,000 klux 0,0 W/qm 0,0 nein 22,45 µg/m³ 08:05
08:10-3,3 °C 79 % 1016,7 hPa 0,0 mm 0,0 mm nein 6,4 km/h 16,1 km/h 0,0 mm/h OSO 0,000 klux 0,0 W/qm 0,0 nein 22,40 µg/m³ 08:10
08:15-3,3 °C 79 % 1016,7 hPa 0,0 mm 0,0 mm nein 9,7 km/h 17,7 km/h 0,0 mm/h SO 0,000 klux 0,0 W/qm 0,0 nein 24,00 µg/m³ 08:15
08:20-3,3 °C 79 % 1016,5 hPa 0,0 mm 0,0 mm nein 8,0 km/h 17,7 km/h 0,0 mm/h SO 1,166 klux 7,0 W/qm 0,0 nein 22,15 µg/m³ 08:20
08:25-3,3 °C 79 % 1016,4 hPa 0,0 mm 0,0 mm nein 8,0 km/h 20,9 km/h 0,0 mm/h SO 1,993 klux 12,0 W/qm 0,0 nein 21,97 µg/m³ 08:25
08:30-3,3 °C 78 % 1016,4 hPa 0,0 mm 0,0 mm nein 11,3 km/h 24,1 km/h 0,0 mm/h SO 1,655 klux 10,0 W/qm 0,0 nein 22,95 µg/m³ 08:30
08:35-3,3 °C 78 % 1016,4 hPa 0,0 mm 0,0 mm nein 9,7 km/h 24,1 km/h 0,0 mm/h SO 1,155 klux 7,0 W/qm 0,0 nein 22,65 µg/m³ 08:35
08:40-3,3 °C 78 % 1016,4 hPa 0,0 mm 0,0 mm nein 9,7 km/h 24,1 km/h 0,0 mm/h SO 1,480 klux 9,0 W/qm 0,0 nein 24,30 µg/m³ 08:40
08:45-2,8 °C 78 % 1016,4 hPa 0,0 mm 0,0 mm nein 11,3 km/h 25,7 km/h 0,0 mm/h SSO 1,639 klux 10,0 W/qm 0,0 nein 24,25 µg/m³ 08:45
08:50-2,8 °C 78 % 1016,3 hPa 0,0 mm 0,0 mm nein 12,9 km/h 22,5 km/h 0,0 mm/h SO 2,125 klux 13,0 W/qm 0,0 nein 23,15 µg/m³ 08:50
08:55-2,8 °C 78 % 1016,3 hPa 0,0 mm 0,0 mm nein 11,3 km/h 20,9 km/h 0,0 mm/h SO 2,281 klux 14,0 W/qm 0,0 nein 22,82 µg/m³ 08:55
09:00-2,8 °C 78 % 1016,3 hPa 0,0 mm 0,0 mm nein 6,4 km/h 16,1 km/h 0,0 mm/h SO 2,437 klux 15,0 W/qm 0,0 nein 25,50 µg/m³ 09:00
09:05-2,8 °C 78 % 1016,2 hPa 0,0 mm 0,0 mm nein 8,0 km/h 17,7 km/h 0,0 mm/h SO 2,591 klux 16,0 W/qm 0,0 nein 24,85 µg/m³ 09:05
09:10-2,8 °C 77 % 1016,3 hPa 0,0 mm 0,0 mm nein 8,0 km/h 22,5 km/h 0,0 mm/h SO 2,745 klux 17,0 W/qm 0,0 nein 23,70 µg/m³ 09:10
09:15-2,8 °C 78 % 1016,3 hPa 0,0 mm 0,0 mm nein 9,7 km/h 24,1 km/h 0,0 mm/h SSO 4,186 klux 26,0 W/qm 0,0 nein 24,02 µg/m³ 09:15
09:20-2,8 °C 77 % 1016,3 hPa 0,0 mm 0,0 mm nein 9,7 km/h 19,3 km/h 0,0 mm/h SO 3,372 klux 21,0 W/qm 0,0 nein 25,52 µg/m³ 09:20
09:25-2,8 °C 77 % 1016,3 hPa 0,0 mm 0,0 mm nein 8,0 km/h 16,1 km/h 0,0 mm/h SO 3,042 klux 19,0 W/qm 0,0 nein 25,32 µg/m³ 09:25
09:30-2,8 °C 77 % 1016,2 hPa 0,0 mm 0,0 mm nein 6,4 km/h 19,3 km/h 0,0 mm/h SO 3,513 klux 22,0 W/qm 0,0 nein 25,00 µg/m³ 09:30
09:35-2,8 °C 77 % 1016,2 hPa 0,0 mm 0,0 mm nein 9,7 km/h 17,7 km/h 0,0 mm/h SO 3,822 klux 24,0 W/qm 0,0 nein 25,27 µg/m³ 09:35
09:40-2,8 °C 77 % 1016,2 hPa 0,0 mm 0,0 mm nein 11,3 km/h 19,3 km/h 0,0 mm/h SSO 4,130 klux 26,0 W/qm 0,0 nein 25,85 µg/m³ 09:40
09:45-2,8 °C 77 % 1016,4 hPa 0,0 mm 0,0 mm nein 9,7 km/h 16,1 km/h 0,0 mm/h SSO 3,644 klux 23,0 W/qm 0,0 nein 25,65 µg/m³ 09:45
09:50-2,8 °C 77 % 1016,4 hPa 0,0 mm 0,0 mm nein 14,5 km/h 20,9 km/h 0,0 mm/h SSO 3,003 klux 19,0 W/qm 0,0 nein 27,37 µg/m³ 09:50
09:55-2,8 °C 78 % 1016,4 hPa 0,0 mm 0,0 mm nein 12,9 km/h 20,9 km/h 0,0 mm/h SSO 3,626 klux 23,0 W/qm 0,0 nein 24,07 µg/m³ 09:55
UhrzeitTemperaturFeuchteLuftdruckNiederschlagEvapotranspirationNiederschlag?WindWindböenRegenrateWindrichtungHelligkeitSolarstrahlungUV-IndexSonne?Feinstaub 10µmUhrzeit
10:00-2,8 °C 78 % 1016,3 hPa 0,0 mm 0,0 mm nein 11,3 km/h 19,3 km/h 0,0 mm/h SSO 3,932 klux 25,0 W/qm 0,0 nein 25,32 µg/m³ 10:00
10:05-2,8 °C 79 % 1016,4 hPa 0,0 mm 0,0 mm nein 11,3 km/h 17,7 km/h 0,0 mm/h SSO 4,080 klux 26,0 W/qm 0,0 nein 26,12 µg/m³ 10:05
10:10-2,8 °C 79 % 1016,4 hPa 0,0 mm 0,0 mm nein 9,7 km/h 17,7 km/h 0,0 mm/h SSO 4,541 klux 29,0 W/qm 0,0 nein 28,85 µg/m³ 10:10
10:15-2,8 °C 80 % 1016,6 hPa 0,0 mm 0,0 mm nein 8,0 km/h 16,1 km/h 0,0 mm/h SO 6,094 klux 39,0 W/qm 0,0 nein 27,40 µg/m³ 10:15
10:20-2,8 °C 80 % 1016,5 hPa 0,0 mm 0,0 mm nein 6,4 km/h 14,5 km/h 0,0 mm/h SO 8,732 klux 56,0 W/qm 0,0 nein 29,65 µg/m³ 10:20
10:25-2,2 °C 80 % 1016,6 hPa 0,0 mm 0,0 mm nein 4,8 km/h 12,9 km/h 0,0 mm/h OSO 10,116 klux 65,0 W/qm 0,0 nein 27,13 µg/m³ 10:25
10:30-2,2 °C 81 % 1016,5 hPa 0,0 mm 0,0 mm nein 6,4 km/h 14,5 km/h 0,0 mm/h OSO 7,301 klux 47,0 W/qm 0,0 nein 31,50 µg/m³ 10:30
10:35-2,2 °C 81 % 1016,4 hPa 0,0 mm 0,0 mm nein 8,0 km/h 14,5 km/h 0,0 mm/h SO 7,132 klux 46,0 W/qm 0,0 nein 31,95 µg/m³ 10:35
10:40-2,2 °C 81 % 1016,5 hPa 0,0 mm 0,0 mm nein 4,8 km/h 11,3 km/h 0,0 mm/h OSO 12,072 klux 78,0 W/qm 0,0 nein 31,00 µg/m³ 10:40
10:45-2,2 °C 82 % 1016,4 hPa 0,0 mm 0,0 mm nein 9,7 km/h 17,7 km/h 0,0 mm/h SSO 12,670 klux 82,0 W/qm 0,0 nein 34,13 µg/m³ 10:45
10:50-2,2 °C 82 % 1016,1 hPa 0,0 mm 0,0 mm nein 8,0 km/h 19,3 km/h 0,0 mm/h OSO 10,645 klux 69,0 W/qm 0,0 nein 34,65 µg/m³ 10:50
10:55-2,2 °C 82 % 1016,1 hPa 0,0 mm 0,0 mm nein 8,0 km/h 16,1 km/h 0,0 mm/h SSO 9,243 klux 60,0 W/qm 0,0 nein - 10:55
Gesamt: -3,5 °C 80 % 1018,5 hPa 0,0 mm 0,2 mm nein 6,7 km/h 14,6 km/h 0,0 mm/h 0 1,138 klux 7,2 W/qm 0,0 nein 25,03 µg/m³

Insgesamt 132 Zeilen mal 15 Spalten = 1980 Werte werden angezeigt.

www.wetter-rosstal.de   •   www.wetter-franken.de   •   www.lightningmaps.org   •   Start   •   Kontakt / Datenschutz   •   PC-Kümmerer